createdAt,value
2018-01-24T00:01:43.129Z,69.63
2018-01-24T00:04:10.696Z,69.83
2018-01-24T00:06:38.320Z,70.42
2018-01-24T00:09:05.932Z,69.68
2018-01-24T00:11:33.531Z,71.02
2018-01-24T00:14:01.148Z,71.94
2018-01-24T00:16:28.720Z,72.71
2018-01-24T00:18:56.372Z,73.51
2018-01-24T00:21:23.988Z,71.18
2018-01-24T00:23:51.566Z,72.53
2018-01-24T00:26:19.141Z,72.00
2018-01-24T00:28:46.816Z,72.45
2018-01-24T00:31:14.396Z,72.34
2018-01-24T00:33:41.976Z,70.58
2018-01-24T00:36:09.597Z,69.52
2018-01-24T00:38:37.170Z,68.42
2018-01-24T00:41:04.749Z,68.54
2018-01-24T00:43:32.391Z,69.02
2018-01-24T00:45:59.965Z,68.56
2018-01-24T00:48:27.525Z,68.55
2018-01-24T00:50:55.246Z,67.89
2018-01-24T00:53:22.838Z,68.01
2018-01-24T00:55:50.416Z,67.48
2018-01-24T00:58:18.042Z,67.90
2018-01-24T01:00:45.634Z,69.01
2018-01-24T01:03:13.216Z,67.90
2018-01-24T01:05:40.815Z,69.38
2018-01-24T01:08:08.397Z,68.44
2018-01-24T01:10:35.962Z,69.52
2018-01-24T01:13:03.581Z,69.61
2018-01-24T01:15:31.151Z,69.12
2018-01-24T01:17:58.730Z,65.93
2018-01-24T01:20:26.354Z,66.73
2018-01-24T01:22:53.929Z,68.01
2018-01-24T01:25:21.498Z,65.19
2018-01-24T01:27:49.200Z,62.98
2018-01-24T01:30:16.780Z,60.42
2018-01-24T01:32:44.349Z,61.29
2018-01-24T01:35:11.961Z,61.61
2018-01-24T01:37:39.518Z,58.20
2018-01-24T01:40:07.080Z,59.58
2018-01-24T01:42:34.689Z,58.33
2018-01-24T01:45:02.264Z,57.64
2018-01-24T01:47:29.853Z,58.23
2018-01-24T01:49:57.520Z,59.80
2018-01-24T01:52:25.140Z,61.38
2018-01-24T01:54:52.754Z,61.08
2018-01-24T01:57:20.402Z,60.70
2018-01-24T01:59:48.017Z,62.04
2018-01-24T02:02:15.604Z,61.28
2018-01-24T02:04:43.292Z,56.61
2018-01-24T02:07:11.051Z,58.37
2018-01-24T02:09:38.633Z,58.74
2018-01-24T02:12:06.252Z,58.99
2018-01-24T02:14:33.835Z,60.43
2018-01-24T02:17:01.411Z,56.92
2018-01-24T02:19:29.094Z,60.27
2018-01-24T02:21:56.677Z,60.28
2018-01-24T02:24:24.286Z,59.51
2018-01-24T02:26:51.960Z,60.34
2018-01-24T02:29:19.542Z,60.03
2018-01-24T02:31:47.162Z,61.16
2018-01-24T02:34:14.772Z,62.64
2018-01-24T02:36:42.343Z,63.89
2018-01-24T02:39:15.989Z,63.03
2018-01-24T02:41:43.559Z,62.85
2018-01-24T02:44:11.131Z,63.51
2018-01-24T02:46:38.750Z,62.62
2018-01-24T02:49:06.711Z,63.55
2018-01-24T02:51:34.336Z,63.58
2018-01-24T02:54:01.957Z,63.80
2018-01-24T02:56:29.523Z,63.50
2018-01-24T02:58:57.087Z,62.76
2018-01-24T03:01:24.691Z,63.30
2018-01-24T03:03:52.275Z,63.59
2018-01-24T03:06:19.860Z,63.84
2018-01-24T03:08:47.462Z,64.27
2018-01-24T03:11:15.027Z,65.59
2018-01-24T03:13:42.852Z,65.15
2018-01-24T03:16:10.486Z,63.07
2018-01-24T03:18:38.056Z,65.50
2018-01-24T03:21:05.824Z,65.06
2018-01-24T03:23:33.428Z,64.80
2018-01-24T03:26:01.013Z,66.61
2018-01-24T03:28:28.597Z,66.08
2018-01-24T03:30:56.210Z,67.63
2018-01-24T03:33:23.772Z,68.55
2018-01-24T03:35:51.355Z,69.00
2018-01-24T03:38:19.265Z,68.79
2018-01-24T03:40:46.844Z,68.43
2018-01-24T03:43:14.419Z,68.09
2018-01-24T03:45:42.019Z,67.08
2018-01-24T03:48:09.591Z,66.79
2018-01-24T03:50:37.186Z,66.29
2018-01-24T03:53:04.812Z,65.15
2018-01-24T03:55:32.395Z,61.39
2018-01-24T03:57:59.999Z,62.33
2018-01-24T04:00:27.628Z,65.00
2018-01-24T04:02:55.212Z,66.68
2018-01-24T04:05:22.801Z,66.44
2018-01-24T04:07:50.424Z,65.81
2018-01-24T04:10:17.993Z,61.60
2018-01-24T04:12:45.555Z,60.62
2018-01-24T04:15:13.167Z,62.65
2018-01-24T04:17:40.754Z,61.50
2018-01-24T04:20:08.396Z,61.15
2018-01-24T04:22:36.025Z,61.23
2018-01-24T04:25:03.612Z,62.47
2018-01-24T04:27:31.184Z,62.25
2018-01-24T04:29:58.818Z,63.48
2018-01-24T04:32:26.378Z,63.68
2018-01-24T04:34:53.950Z,62.63
2018-01-24T04:37:21.642Z,63.23
2018-01-24T04:39:49.283Z,61.44
2018-01-24T04:42:16.875Z,59.57
2018-01-24T04:44:44.533Z,60.57
2018-01-24T04:47:12.139Z,61.11
2018-01-24T04:49:39.757Z,61.26
2018-01-24T04:52:07.508Z,61.23
2018-01-24T04:54:35.105Z,61.84
2018-01-24T04:57:02.794Z,58.95
2018-01-24T04:59:30.445Z,59.33
2018-01-24T05:01:58.057Z,59.51
2018-01-24T05:04:25.672Z,56.96
2018-01-24T05:06:53.331Z,56.25
2018-01-24T05:09:20.944Z,58.17
2018-01-24T05:11:48.579Z,57.21
2018-01-24T05:14:16.258Z,58.27
2018-01-24T05:16:43.879Z,58.28
2018-01-24T05:19:11.516Z,57.33
2018-01-24T05:21:40.643Z,57.60
2018-01-24T05:24:08.270Z,58.42
2018-01-24T05:26:35.857Z,58.09
2018-01-24T05:29:03.459Z,58.05
2018-01-24T05:31:31.031Z,59.04
2018-01-24T05:33:58.598Z,59.34
2018-01-24T05:36:26.214Z,57.95
2018-01-24T05:38:53.801Z,58.27
2018-01-24T05:41:21.382Z,60.17
2018-01-24T05:43:49.013Z,58.20
2018-01-24T05:46:16.598Z,58.38
2018-01-24T05:48:44.197Z,57.55
2018-01-24T05:51:11.816Z,56.55
2018-01-24T05:53:39.406Z,56.36
2018-01-24T05:56:06.975Z,57.36
2018-01-24T05:58:34.617Z,55.93
2018-01-24T06:01:02.179Z,57.24
2018-01-24T06:03:29.759Z,56.73
2018-01-24T06:05:57.375Z,58.00
2018-01-24T06:08:24.965Z,57.41
2018-01-24T06:10:52.542Z,56.43
2018-01-24T06:13:20.169Z,56.13
2018-01-24T06:15:47.756Z,57.51
2018-01-24T06:18:15.400Z,55.63
2018-01-24T06:20:43.007Z,54.82
2018-01-24T06:23:10.583Z,55.16
2018-01-24T06:25:38.163Z,55.59
2018-01-24T06:28:05.775Z,54.95
2018-01-24T06:30:33.354Z,54.81
2018-01-24T06:33:00.927Z,54.90
2018-01-24T06:35:28.596Z,53.89
2018-01-24T06:37:56.183Z,53.58
2018-01-24T06:40:23.773Z,54.40
2018-01-24T06:42:51.602Z,53.70
2018-01-24T06:45:19.180Z,54.54
2018-01-24T06:47:46.761Z,54.15
2018-01-24T06:50:14.401Z,54.94
2018-01-24T06:52:41.987Z,54.38
2018-01-24T06:55:09.577Z,55.71
2018-01-24T06:57:37.241Z,57.73
2018-01-24T07:00:04.913Z,56.60
2018-01-24T07:02:32.589Z,57.58
2018-01-24T07:05:00.235Z,57.05
2018-01-24T07:07:27.818Z,56.39
2018-01-24T07:09:55.387Z,56.75
2018-01-24T07:12:34.688Z,55.56
2018-01-24T07:15:02.272Z,53.94
2018-01-24T07:17:30.172Z,52.64
2018-01-24T07:19:58.716Z,54.36
2018-01-24T07:22:26.972Z,57.75
2018-01-24T07:24:54.539Z,59.76
2018-01-24T07:27:22.193Z,67.37
2018-01-24T07:29:49.954Z,62.24
2018-01-24T07:32:17.710Z,59.41
2018-01-24T07:34:45.384Z,58.81
2018-01-24T07:37:12.965Z,52.83
2018-01-24T07:39:40.590Z,53.76
2018-01-24T07:42:08.219Z,53.31
2018-01-24T07:44:36.044Z,49.14
2018-01-24T07:47:03.618Z,48.76
2018-01-24T07:49:31.342Z,48.51
2018-01-24T07:51:58.976Z,48.67
2018-01-24T07:54:26.672Z,50.23
2018-01-24T07:56:54.488Z,47.53
2018-01-24T07:59:22.124Z,48.18
2018-01-24T08:01:49.755Z,48.44
2018-01-24T08:04:17.422Z,48.28
2018-01-24T08:06:45.049Z,47.27
2018-01-24T08:09:12.680Z,47.41
2018-01-24T08:11:40.354Z,47.97
2018-01-24T08:14:07.963Z,49.16
2018-01-24T08:16:35.596Z,47.24
2018-01-24T08:19:03.239Z,47.30
2018-01-24T08:21:30.868Z,47.41
2018-01-24T08:23:58.551Z,46.38
2018-01-24T08:26:26.166Z,46.39
2018-01-24T08:28:53.756Z,45.16
2018-01-24T08:31:21.502Z,45.73
2018-01-24T08:33:49.123Z,45.54
2018-01-24T08:36:16.711Z,46.27
2018-01-24T08:38:44.300Z,44.13
2018-01-24T08:41:11.919Z,43.30
2018-01-24T08:43:39.620Z,43.19
2018-01-24T08:46:07.200Z,42.67
2018-01-24T08:48:35.732Z,41.42
2018-01-24T08:51:03.311Z,40.72
2018-01-24T08:53:30.889Z,41.11
2018-01-24T08:55:58.544Z,41.89
2018-01-24T08:58:26.124Z,40.09
2018-01-24T09:00:53.714Z,40.08
2018-01-24T09:03:21.338Z,36.99
2018-01-24T09:05:48.925Z,37.06
2018-01-24T09:08:16.499Z,35.43
2018-01-24T09:10:44.152Z,34.69
2018-01-24T09:13:11.809Z,33.06
2018-01-24T09:15:39.432Z,31.87
2018-01-24T09:18:07.071Z,31.15
2018-01-24T09:20:34.685Z,31.02
2018-01-24T09:23:02.265Z,33.88
2018-01-24T09:25:29.919Z,33.82
2018-01-24T09:27:57.533Z,35.51
2018-01-24T09:30:25.153Z,37.20
2018-01-24T09:32:53.319Z,37.67
2018-01-24T09:35:20.941Z,34.91
2018-01-24T09:37:48.558Z,36.29
2018-01-24T09:40:16.185Z,36.08
2018-01-24T09:42:43.735Z,35.41
2018-01-24T09:45:11.300Z,35.13
2018-01-24T09:47:38.939Z,34.81
2018-01-24T09:50:06.553Z,35.23
2018-01-24T09:52:34.103Z,34.70
2018-01-24T09:55:01.747Z,32.95
2018-01-24T09:57:29.321Z,32.52
2018-01-24T09:59:56.976Z,34.43
2018-01-24T10:02:24.580Z,31.31
2018-01-24T10:04:53.730Z,33.96
2018-01-24T10:07:21.329Z,35.14
2018-01-24T10:09:48.936Z,36.83
2018-01-24T10:12:16.504Z,34.37
2018-01-24T10:14:44.117Z,31.48
2018-01-24T10:17:11.740Z,31.79
2018-01-24T10:19:39.333Z,32.11
2018-01-24T10:22:06.905Z,33.59
2018-01-24T10:24:34.517Z,31.54
2018-01-24T10:27:02.131Z,32.88
2018-01-24T10:29:29.733Z,34.64
2018-01-24T10:31:57.392Z,32.97
2018-01-24T10:34:25.067Z,31.57
2018-01-24T10:36:52.717Z,32.55
2018-01-24T10:39:20.493Z,31.86
2018-01-24T10:41:48.227Z,35.12
2018-01-24T10:44:15.984Z,33.73
2018-01-24T10:46:43.614Z,32.82
2018-01-24T10:49:11.231Z,28.29
2018-01-24T10:51:38.862Z,27.93
2018-01-24T10:54:06.501Z,29.31
2018-01-24T10:56:34.116Z,28.28
2018-01-24T10:59:01.700Z,28.75
2018-01-24T11:01:29.302Z,28.33
2018-01-24T11:03:56.864Z,30.41
2018-01-24T11:06:24.441Z,29.06
2018-01-24T11:08:52.053Z,30.12
2018-01-24T11:11:19.670Z,31.36
2018-01-24T11:13:47.330Z,31.30
2018-01-24T11:16:14.946Z,28.90
2018-01-24T11:18:42.497Z,32.80
2018-01-24T11:21:10.055Z,32.05
2018-01-24T11:23:37.674Z,31.36
2018-01-24T11:26:05.289Z,28.89
2018-01-24T11:28:32.943Z,28.56
2018-01-24T11:31:00.542Z,29.43
2018-01-24T11:33:28.149Z,27.65
2018-01-24T11:35:55.751Z,26.57
2018-01-24T11:38:23.393Z,27.62
2018-01-24T11:40:51.066Z,29.71
2018-01-24T11:43:18.671Z,26.08
2018-01-24T11:45:46.290Z,29.50
2018-01-24T11:48:13.860Z,27.61
2018-01-24T11:50:41.452Z,27.89
2018-01-24T11:53:09.058Z,28.78
2018-01-24T11:55:36.643Z,27.34
2018-01-24T11:58:04.230Z,28.59
2018-01-24T12:00:31.859Z,29.89
2018-01-24T12:02:59.424Z,30.37
2018-01-24T12:05:27.008Z,31.58
2018-01-24T12:07:54.662Z,29.37
2018-01-24T12:10:22.239Z,30.93
2018-01-24T12:12:49.839Z,30.40
2018-01-24T12:15:17.497Z,29.92
2018-01-24T12:17:45.070Z,30.90
2018-01-24T12:20:12.612Z,32.21
2018-01-24T12:22:40.256Z,30.11
2018-01-24T12:25:07.873Z,28.40
2018-01-24T12:27:35.452Z,25.83
2018-01-24T12:30:03.228Z,26.90
2018-01-24T12:32:30.805Z,26.21
2018-01-24T12:34:58.387Z,25.68
2018-01-24T12:37:26.024Z,25.84
2018-01-24T12:39:53.678Z,27.25
2018-01-24T12:42:21.232Z,25.93
2018-01-24T12:44:48.845Z,26.79
2018-01-24T12:47:16.456Z,27.36
2018-01-24T12:49:44.046Z,27.66
2018-01-24T12:52:11.652Z,29.10
2018-01-24T12:54:39.255Z,29.52
2018-01-24T12:57:06.829Z,29.40
2018-01-24T12:59:34.451Z,27.98
2018-01-24T13:02:02.038Z,28.02
2018-01-24T13:04:29.635Z,29.70
2018-01-24T13:06:57.259Z,30.28
2018-01-24T13:09:24.839Z,28.22
2018-01-24T13:11:52.460Z,28.85
2018-01-24T13:14:20.077Z,31.54
2018-01-24T13:16:47.661Z,32.67
2018-01-24T13:19:15.241Z,32.23
2018-01-24T13:21:42.883Z,32.05
2018-01-24T13:24:10.502Z,31.87
2018-01-24T13:26:38.207Z,31.26
2018-01-24T13:29:05.904Z,30.17
2018-01-24T13:31:33.550Z,32.44
2018-01-24T13:34:01.234Z,33.79
2018-01-24T13:36:28.896Z,34.84
2018-01-24T13:38:56.488Z,35.65
2018-01-24T13:41:24.096Z,37.82
2018-01-24T13:43:51.721Z,33.39
2018-01-24T13:46:19.301Z,32.93
2018-01-24T13:48:46.911Z,32.40
2018-01-24T13:51:14.554Z,31.40
2018-01-24T13:53:42.161Z,31.97
2018-01-24T13:56:09.773Z,33.46
2018-01-24T13:58:37.412Z,34.17
2018-01-24T14:01:05.324Z,34.12
2018-01-24T14:03:32.896Z,33.88
2018-01-24T14:06:00.577Z,35.20
2018-01-24T14:08:29.754Z,35.51
2018-01-24T14:10:57.331Z,34.25
2018-01-24T14:13:24.931Z,36.65
2018-01-24T14:15:52.567Z,37.39
2018-01-24T14:18:20.179Z,37.06
2018-01-24T14:20:47.791Z,35.46
2018-01-24T14:23:15.356Z,35.59
2018-01-24T14:25:42.936Z,39.71
2018-01-24T14:28:10.545Z,42.58
2018-01-24T14:30:38.105Z,43.85
2018-01-24T14:33:05.815Z,45.69
2018-01-24T14:35:33.462Z,47.55
2018-01-24T14:38:01.046Z,47.85
2018-01-24T14:40:28.619Z,50.89
2018-01-24T14:42:56.215Z,51.11
2018-01-24T14:45:23.786Z,52.78
2018-01-24T14:47:57.017Z,52.52
2018-01-24T14:50:24.609Z,54.48
2018-01-24T14:52:52.295Z,54.94
2018-01-24T14:55:19.899Z,55.92
2018-01-24T14:57:47.466Z,55.44
2018-01-24T15:00:15.053Z,57.25
2018-01-24T15:02:42.665Z,55.68
2018-01-24T15:05:10.261Z,56.47
2018-01-24T15:07:38.010Z,57.08
2018-01-24T15:10:06.225Z,56.68
2018-01-24T15:12:34.665Z,58.66
2018-01-24T15:15:02.362Z,58.34
2018-01-24T15:17:30.672Z,60.28
2018-01-24T15:19:59.083Z,61.35
2018-01-24T15:22:27.766Z,61.41
2018-01-24T15:24:55.529Z,61.70
2018-01-24T15:27:24.415Z,60.94
2018-01-24T15:29:53.421Z,62.19
2018-01-24T15:32:22.472Z,63.14
2018-01-24T15:34:50.177Z,63.50
2018-01-24T15:37:17.768Z,63.43
2018-01-24T15:39:45.344Z,64.05
2018-01-24T15:42:12.959Z,64.85
2018-01-24T15:44:40.547Z,62.99
2018-01-24T15:47:08.195Z,64.33
2018-01-24T15:49:35.809Z,64.06
2018-01-24T15:52:03.384Z,63.74
2018-01-24T15:54:30.968Z,64.11
2018-01-24T15:56:58.577Z,63.89
2018-01-24T15:59:26.157Z,64.22
2018-01-24T16:01:53.729Z,65.35
2018-01-24T16:04:21.425Z,66.74
2018-01-24T16:06:48.989Z,66.40
2018-01-24T16:09:16.555Z,66.62
2018-01-24T16:11:44.355Z,67.35
2018-01-24T16:14:11.918Z,67.56
2018-01-24T16:16:39.509Z,67.53
2018-01-24T16:19:07.176Z,68.53
2018-01-24T16:21:34.733Z,69.02
2018-01-24T16:24:02.310Z,68.55
2018-01-24T16:26:30.039Z,68.16
2018-01-24T16:28:57.943Z,67.86
2018-01-24T16:31:25.514Z,67.20
2018-01-24T16:33:53.144Z,67.45
2018-01-24T16:36:20.756Z,66.61
2018-01-24T16:38:48.323Z,67.87
2018-01-24T16:41:15.947Z,67.18
2018-01-24T16:43:43.510Z,67.25
2018-01-24T16:46:11.104Z,67.65
2018-01-24T16:48:38.737Z,67.64
2018-01-24T16:51:06.325Z,67.64
2018-01-24T16:53:33.957Z,67.42
2018-01-24T16:56:01.569Z,67.75
2018-01-24T16:58:29.659Z,67.98
2018-01-24T17:00:57.245Z,68.20
2018-01-24T17:03:24.841Z,70.56
2018-01-24T17:05:52.467Z,72.63
2018-01-24T17:08:20.082Z,72.96
2018-01-24T17:10:47.715Z,73.34
2018-01-24T17:13:15.297Z,74.57
2018-01-24T17:15:43.780Z,75.60
2018-01-24T17:18:11.387Z,76.03
2018-01-24T17:20:38.974Z,76.55
2018-01-24T17:23:06.631Z,78.26
2018-01-24T17:25:34.284Z,77.79
2018-01-24T17:28:01.884Z,79.21
2018-01-24T17:30:29.486Z,79.72
2018-01-24T17:32:57.043Z,79.06
2018-01-24T17:35:24.692Z,78.07
2018-01-24T17:37:52.280Z,77.65
2018-01-24T17:40:20.769Z,78.13
2018-01-24T17:42:48.329Z,78.94
2018-01-24T17:45:15.948Z,79.16
2018-01-24T17:47:43.525Z,79.40
2018-01-24T17:50:11.108Z,79.38
2018-01-24T17:52:38.723Z,79.76
2018-01-24T17:55:06.321Z,80.28
2018-01-24T17:57:33.880Z,81.14
2018-01-24T18:00:01.512Z,81.40
2018-01-24T18:02:29.079Z,81.86
2018-01-24T18:04:56.649Z,82.49
2018-01-24T18:07:24.244Z,82.36
2018-01-24T18:09:51.801Z,82.03
2018-01-24T18:12:19.373Z,82.37
2018-01-24T18:14:46.987Z,83.04
2018-01-24T18:17:14.547Z,83.23
2018-01-24T18:19:42.124Z,83.45
2018-01-24T18:22:09.733Z,84.25
2018-01-24T18:24:37.295Z,84.79
2018-01-24T18:27:04.882Z,83.97
2018-01-24T18:29:32.489Z,83.45
2018-01-24T18:32:00.064Z,84.33
2018-01-24T18:34:27.641Z,84.20
2018-01-24T18:36:55.233Z,84.30
2018-01-24T18:39:22.877Z,85.83
2018-01-24T18:41:50.458Z,86.24
2018-01-24T18:44:18.056Z,86.03
2018-01-24T18:46:45.613Z,85.93
2018-01-24T18:49:13.181Z,85.35
2018-01-24T18:51:40.825Z,84.25
2018-01-24T18:54:08.441Z,83.51
2018-01-24T18:56:36.023Z,82.86
2018-01-24T18:59:03.625Z,83.02
2018-01-24T19:01:31.224Z,82.52
2018-01-24T19:03:58.842Z,83.04
2018-01-24T19:06:26.466Z,82.68
2018-01-24T19:08:54.093Z,83.10
2018-01-24T19:11:21.649Z,84.05
2018-01-24T19:13:49.266Z,85.19
2018-01-24T19:16:16.827Z,85.79
2018-01-24T19:18:44.398Z,86.29
2018-01-24T19:21:12.015Z,86.83
2018-01-24T19:23:39.597Z,86.47
2018-01-24T19:26:07.291Z,86.15
2018-01-24T19:28:34.915Z,86.51
2018-01-24T19:31:02.482Z,86.89
2018-01-24T19:33:30.106Z,87.24
2018-01-24T19:35:57.746Z,87.38
2018-01-24T19:38:25.352Z,87.97
2018-01-24T19:40:52.960Z,88.24
2018-01-24T19:43:20.606Z,88.28
2018-01-24T19:45:48.176Z,88.58
2018-01-24T19:48:15.789Z,88.91
2018-01-24T19:50:43.349Z,89.32
2018-01-24T19:53:10.954Z,89.21
2018-01-24T19:55:38.568Z,89.20
2018-01-24T19:58:06.128Z,89.65
2018-01-24T20:00:33.692Z,89.72
2018-01-24T20:03:01.282Z,89.65
2018-01-24T20:05:28.861Z,89.86
2018-01-24T20:07:56.734Z,90.03
2018-01-24T20:10:24.325Z,89.76
2018-01-24T20:12:51.965Z,89.69
2018-01-24T20:15:19.554Z,89.87
2018-01-24T20:17:47.193Z,89.96
2018-01-24T20:20:14.768Z,90.50
2018-01-24T20:22:42.333Z,89.92
2018-01-24T20:25:09.949Z,89.90
2018-01-24T20:27:37.526Z,89.40
2018-01-24T20:30:05.094Z,89.38
2018-01-24T20:32:32.714Z,89.61
2018-01-24T20:35:00.295Z,89.55
2018-01-24T20:37:27.872Z,89.83
2018-01-24T20:39:55.484Z,89.73
2018-01-24T20:42:23.042Z,90.08
2018-01-24T20:44:50.606Z,90.29
2018-01-24T20:47:18.226Z,90.50
2018-01-24T20:49:45.787Z,91.05
2018-01-24T20:52:13.350Z,91.11
2018-01-24T20:54:40.952Z,90.49
2018-01-24T20:57:08.528Z,90.09
2018-01-24T20:59:36.084Z,90.29
2018-01-24T21:02:03.681Z,90.11
2018-01-24T21:04:31.260Z,90.45
2018-01-24T21:06:58.829Z,90.23
2018-01-24T21:09:26.407Z,90.20
2018-01-24T21:11:53.968Z,89.72
2018-01-24T21:14:21.521Z,89.62
2018-01-24T21:16:49.156Z,90.21
2018-01-24T21:19:16.725Z,90.31
2018-01-24T21:21:44.277Z,90.20
2018-01-24T21:24:12.470Z,90.36
2018-01-24T21:26:40.056Z,90.09
2018-01-24T21:29:28.996Z,89.84
2018-01-24T21:35:08.137Z,89.55
2018-01-24T21:37:35.714Z,89.60
2018-01-24T21:40:03.323Z,89.57
2018-01-24T21:42:30.932Z,89.60
2018-01-24T21:44:58.500Z,89.48
2018-01-24T21:47:26.104Z,89.11
2018-01-24T21:49:53.700Z,89.01
2018-01-24T21:52:21.271Z,88.92
2018-01-24T21:54:48.883Z,89.38
2018-01-24T21:57:16.482Z,89.60
2018-01-24T21:59:44.047Z,89.57
2018-01-24T22:02:11.616Z,89.35
2018-01-24T22:04:39.216Z,89.58
2018-01-24T22:07:06.797Z,89.35
2018-01-24T22:09:34.402Z,89.50
2018-01-24T22:12:01.987Z,89.81
2018-01-24T22:14:29.544Z,89.99
2018-01-24T22:16:57.096Z,90.55
2018-01-24T22:19:24.708Z,90.41
2018-01-24T22:21:52.285Z,90.36
2018-01-24T22:24:19.867Z,90.70
2018-01-24T22:26:47.520Z,90.83
2018-01-24T22:29:15.071Z,91.02
2018-01-24T22:31:42.703Z,91.04
2018-01-24T22:34:10.322Z,90.85
2018-01-24T22:36:37.929Z,90.73
2018-01-24T22:39:05.534Z,90.05
2018-01-24T22:41:33.144Z,89.29
2018-01-24T22:44:00.707Z,88.69
2018-01-24T22:46:28.304Z,88.79
2018-01-24T22:48:55.903Z,88.69
2018-01-24T22:51:25.281Z,88.74
2018-01-24T22:53:52.855Z,88.42
2018-01-24T22:56:20.482Z,88.32
2018-01-24T22:58:48.084Z,88.43
2018-01-24T23:01:15.644Z,88.64
2018-01-24T23:03:43.226Z,88.78
2018-01-24T23:06:10.857Z,89.21
2018-01-24T23:08:38.415Z,89.34
2018-01-24T23:11:06.019Z,89.38
2018-01-24T23:13:33.576Z,89.28
2018-01-24T23:16:01.186Z,89.06
2018-01-24T23:18:28.793Z,89.04
2018-01-24T23:20:56.359Z,88.70
2018-01-24T23:23:23.917Z,88.78
2018-01-24T23:25:51.521Z,88.56
2018-01-24T23:28:19.088Z,88.78
2018-01-24T23:30:46.658Z,88.64
2018-01-24T23:33:14.302Z,88.49
2018-01-24T23:35:41.879Z,88.78
2018-01-24T23:38:09.435Z,88.68
2018-01-24T23:40:37.034Z,88.52
2018-01-24T23:43:04.601Z,88.27
2018-01-24T23:45:32.177Z,88.26
2018-01-24T23:47:59.783Z,88.60
2018-01-24T23:50:27.375Z,88.83
2018-01-24T23:52:55.410Z,88.91
2018-01-24T23:55:23.017Z,88.80
2018-01-24T23:57:50.564Z,88.90
